Time;durP1;ratioP1;P1;durP2;ratioP2;P2;SDS_P1;SDS_P2;PMS_P1;PMS_P2;Temp;Humidity;BMP_temperature;BMP_pressure;BME280_temperature;BME280_humidity;BME280_pressure;Samples;Min_cycle;Max_cycle;Signal;HPM_P1;HPM_P2
2022/05/05 00:00:30;;;;;;;7.33;6.83;;;;;;;4.66;76.69;101980.44;4956381;29;20439;-47
2022/05/05 00:02:58;;;;;;;9.07;8.30;;;;;;;4.62;76.61;101986.94;4931716;28;20583;-46
2022/05/05 00:05:26;;;;;;;7.40;6.87;;;;;;;4.58;77.22;101983.69;4956509;29;20442;-49
2022/05/05 00:07:54;;;;;;;8.37;7.53;;;;;;;4.54;77.41;101992.84;4956471;29;20983;-45
2022/05/05 00:15:52;;;;;;;9.43;8.50;;;;;;;4.42;77.63;101993.88;4956206;29;20805;-48
2022/05/05 00:18:20;;;;;;;8.60;7.90;;;;;;;4.38;77.92;101990.66;4956131;29;20440;-47
2022/05/05 00:20:49;;;;;;;11.13;8.20;;;;;;;4.35;77.69;101985.63;4956158;29;20456;-48
2022/05/05 00:23:17;;;;;;;9.53;8.70;;;;;;;4.31;77.66;101986.81;4931421;28;20927;-47
2022/05/05 00:25:45;;;;;;;8.23;7.63;;;;;;;4.26;78.13;101986.38;4956240;29;20822;-49
2022/05/05 00:28:12;;;;;;;9.30;8.40;;;;;;;4.24;78.24;101990.09;4956141;29;20446;-48
2022/05/05 00:30:40;;;;;;;14.67;8.60;;;;;;;4.20;78.22;101984.22;4955737;29;20458;-48
2022/05/05 00:33:08;;;;;;;9.23;8.37;;;;;;;4.17;78.18;101994.19;4931352;28;20511;-50
2022/05/05 00:35:36;;;;;;;10.27;9.23;;;;;;;4.14;78.38;101990.00;4956161;29;20439;-53
2022/05/05 00:38:05;;;;;;;8.50;8.00;;;;;;;4.13;78.79;101992.75;4956118;29;20440;-49
2022/05/05 00:40:32;;;;;;;9.30;8.70;;;;;;;4.10;78.74;101987.72;4955592;29;20433;-51
2022/05/05 00:43:02;;;;;;;10.57;9.77;;;;;;;4.06;78.99;101991.59;4930895;28;20490;-48
2022/05/05 00:45:29;;;;;;;10.13;9.40;;;;;;;4.08;79.11;101998.41;4958522;28;20432;-52
2022/05/05 00:48:04;;;;;;;8.57;8.07;;;;;;;4.05;79.27;101997.81;4963937;28;20432;-53
2022/05/05 00:50:33;;;;;;;9.77;9.07;;;;;;;4.04;79.33;101998.78;4955362;29;20933;-48
2022/05/05 00:53:01;;;;;;;10.20;9.00;;;;;;;4.03;79.65;101997.13;4930875;28;21085;-50
2022/05/05 00:55:32;;;;;;;10.03;9.30;;;;;;;4.02;80.13;102001.56;4955403;29;20446;-49
2022/05/05 00:58:01;;;;;;;13.53;9.40;;;;;;;4.03;80.28;102000.59;4955845;29;20447;-51
2022/05/05 01:00:29;;;;;;;9.97;9.17;;;;;;;4.02;79.91;101998.06;4955281;29;20439;-48
2022/05/05 01:02:59;;;;;;;9.97;9.07;;;;;;;4.02;80.09;102004.19;4930073;28;20850;-46
2022/05/05 01:05:29;;;;;;;11.57;10.57;;;;;;;4.01;80.25;101996.38;4955599;29;20427;-49
2022/05/05 01:07:57;;;;;;;8.47;7.87;;;;;;;3.99;80.51;101996.53;4955488;29;20546;-49
2022/05/05 01:10:25;;;;;;;9.53;8.83;;;;;;;4.00;80.64;101992.09;4954964;29;20446;-49
2022/05/05 01:12:55;;;;;;;10.87;10.07;;;;;;;3.97;80.52;101993.19;4921608;28;20472;-47
2022/05/05 01:15:23;;;;;;;10.90;10.10;;;;;;;3.96;80.88;101995.94;4954515;29;20446;-53
2022/05/05 01:17:50;;;;;;;10.50;9.70;;;;;;;3.94;80.58;102000.50;4955251;29;20455;-47
2022/05/05 01:20:22;;;;;;;12.93;10.10;;;;;;;3.91;80.97;101989.19;4954913;29;20431;-51
2022/05/05 01:22:52;;;;;;;10.43;9.73;;;;;;;3.89;81.04;101991.13;4930074;28;20515;-48
2022/05/05 01:28:14;;;;;;;11.37;10.50;;;;;;;3.88;81.60;101989.44;4955057;29;20442;-49
2022/05/05 01:30:44;;;;;;;11.73;10.53;;;;;;;3.89;81.77;101979.75;4954744;29;20458;-47
2022/05/05 01:33:15;;;;;;;14.43;9.50;;;;;;;3.89;82.09;101988.50;4930002;28;20458;-47
2022/05/05 01:35:44;;;;;;;12.57;11.67;;;;;;;3.89;81.96;101991.13;4955084;29;20463;-50
2022/05/05 01:38:15;;;;;;;11.70;10.80;;;;;;;3.89;81.95;101990.28;4954921;29;20442;-52
2022/05/05 01:40:46;;;;;;;10.83;9.93;;;;;;;3.88;82.04;101991.28;4954615;29;20479;-48
2022/05/05 01:43:14;;;;;;;10.87;9.87;;;;;;;3.89;82.13;101995.56;4929929;28;20542;-49
2022/05/05 01:45:43;;;;;;;11.83;10.63;;;;;;;3.89;82.34;101993.78;4957623;28;20450;-49
2022/05/05 01:48:11;;;;;;;12.07;10.80;;;;;;;3.89;82.13;101991.13;4962778;28;20503;-51
2022/05/05 01:50:39;;;;;;;12.40;11.40;;;;;;;3.90;82.37;101991.97;4954418;29;20463;-50
2022/05/05 01:53:07;;;;;;;11.57;10.67;;;;;;;3.89;82.63;101996.41;4929976;28;20462;-48
2022/05/05 01:55:36;;;;;;;11.60;10.60;;;;;;;3.86;82.38;101994.03;4954607;29;20518;-47
2022/05/05 01:58:04;;;;;;;13.13;12.13;;;;;;;3.87;82.30;102000.13;4954449;29;20806;-46
2022/05/05 02:00:32;;;;;;;11.80;10.97;;;;;;;3.87;82.63;102002.78;4954012;29;20424;-54
2022/05/05 02:05:48;;;;;;;12.97;11.27;;;;;;;3.86;82.52;102003.72;4933607;29;20601;-47
2022/05/05 02:08:16;;;;;;;11.57;10.63;;;;;;;3.87;82.93;102005.41;4935266;29;20436;-46
2022/05/05 02:10:45;;;;;;;11.13;10.33;;;;;;;3.84;82.78;102003.88;4934992;29;20437;-48
2022/05/05 02:13:12;;;;;;;12.63;11.10;;;;;;;3.85;83.30;102005.53;4924819;28;20833;-48
2022/05/05 02:15:40;;;;;;;12.27;11.13;;;;;;;3.84;82.83;102009.16;4934747;29;20447;-49
2022/05/05 02:18:10;;;;;;;12.00;11.10;;;;;;;3.81;82.93;102009.41;4935104;29;20436;-46
2022/05/05 02:20:38;;;;;;;12.23;10.87;;;;;;;3.77;82.60;102013.22;4934906;29;20445;-49
2022/05/05 02:23:06;;;;;;;11.43;10.63;;;;;;;3.73;82.99;102016.25;4912399;28;20441;-48
2022/05/05 02:25:34;;;;;;;12.33;11.00;;;;;;;3.71;83.12;102018.13;4935053;29;20483;-46
2022/05/05 02:28:04;;;;;;;12.67;11.50;;;;;;;3.70;83.17;102012.03;4935119;29;20437;-47
2022/05/05 02:30:32;;;;;;;12.37;11.27;;;;;;;3.69;83.22;102023.56;4934819;29;20440;-48
2022/05/05 02:32:59;;;;;;;13.10;11.70;;;;;;;3.67;83.37;102022.84;4925317;28;20809;-47
2022/05/05 02:35:27;;;;;;;12.60;11.30;;;;;;;3.66;83.35;102023.78;4948550;29;20428;-48
2022/05/05 02:40:40;;;;;;;13.43;12.33;;;;;;;3.61;83.42;102009.28;4934767;29;20516;-48
2022/05/05 02:43:09;;;;;;;12.50;11.50;;;;;;;3.57;83.61;102013.13;4928603;28;20535;-48
2022/05/05 02:45:37;;;;;;;12.50;11.43;;;;;;;3.55;83.64;102015.06;4934639;29;20842;-47
2022/05/05 02:48:05;;;;;;;13.40;12.00;;;;;;;3.52;83.43;102017.94;4934584;29;20806;-48
2022/05/05 02:50:33;;;;;;;13.80;12.03;;;;;;;3.48;83.38;102024.38;4934706;29;20516;-45
2022/05/05 02:54:47;;;;;;;13.00;11.77;;;;;;;3.47;83.56;102020.91;4934791;29;20443;-48
2022/05/05 02:55:55;;;;;;;13.07;11.97;;;;;;;3.44;83.35;102026.41;4924931;29;20954;-47
2022/05/05 02:58:24;;;;;;;12.50;11.50;;;;;;;3.44;83.76;102020.31;4934659;29;20447;-48
2022/05/05 03:00:51;;;;;;;13.73;11.80;;;;;;;3.41;83.68;102028.44;4934376;29;20433;-50
2022/05/05 03:03:19;;;;;;;11.83;10.93;;;;;;;3.40;84.02;102027.63;4921901;28;20436;-46
2022/05/05 03:05:47;;;;;;;13.50;12.40;;;;;;;3.38;83.71;102015.50;4935540;29;20489;-48
2022/05/05 03:08:15;;;;;;;13.97;12.67;;;;;;;3.38;83.93;102031.31;4934674;29;20863;-47
2022/05/05 03:10:42;;;;;;;13.17;12.00;;;;;;;3.34;83.93;102028.94;4934401;29;20443;-47
2022/05/05 03:13:10;;;;;;;15.73;14.23;;;;;;;3.32;83.88;102030.84;4934066;29;20448;-51
2022/05/05 03:15:39;;;;;;;12.63;11.40;;;;;;;3.29;83.80;102025.81;4912273;28;20470;-45
2022/05/05 03:18:07;;;;;;;13.20;12.00;;;;;;;3.27;83.95;102034.81;4934662;29;20437;-48
2022/05/05 03:20:34;;;;;;;15.03;13.53;;;;;;;3.27;83.83;102035.66;4934264;29;20440;-47
2022/05/05 03:23:02;;;;;;;14.00;12.60;;;;;;;3.24;83.93;102035.03;4934384;29;20443;-48
2022/05/05 03:25:30;;;;;;;15.00;12.90;;;;;;;3.23;84.40;102035.97;4913375;28;20874;-45
2022/05/05 03:27:57;;;;;;;13.77;12.67;;;;;;;3.21;84.12;102032.63;4938182;29;20432;-47
2022/05/05 03:30:25;;;;;;;14.37;12.97;;;;;;;3.20;84.25;102036.22;4937856;29;20445;-46
2022/05/05 03:32:54;;;;;;;13.40;12.23;;;;;;;3.18;84.84;102033.72;4938239;29;20969;-46
2022/05/05 03:35:21;;;;;;;14.50;13.00;;;;;;;3.18;84.40;102035.50;4915765;28;20487;-46
2022/05/05 03:37:49;;;;;;;14.33;13.20;;;;;;;3.18;84.65;102038.16;4938131;29;20437;-46
2022/05/05 03:40:17;;;;;;;14.70;12.33;;;;;;;3.18;85.04;102033.72;4937678;29;20451;-47
2022/05/05 03:42:45;;;;;;;14.70;13.40;;;;;;;3.19;84.72;102040.69;4938082;29;20444;-48
2022/05/05 03:45:13;;;;;;;14.00;12.80;;;;;;;3.22;84.97;102036.97;4929706;28;20503;-49
2022/05/05 03:47:40;;;;;;;15.10;12.80;;;;;;;3.29;85.24;102046.06;4936285;29;20436;-48
2022/05/05 03:50:10;;;;;;;14.60;13.30;;;;;;;3.34;85.24;102041.28;4937739;29;20451;-48
2022/05/05 03:52:38;;;;;;;15.07;13.50;;;;;;;3.40;85.26;102043.47;4937711;29;20436;-46
2022/05/05 03:55:06;;;;;;;13.30;12.20;;;;;;;3.46;85.37;102045.63;4915603;28;20842;-47
2022/05/05 03:57:34;;;;;;;14.50;13.07;;;;;;;3.52;85.53;102053.06;4937936;29;20824;-47
2022/05/05 04:00:03;;;;;;;14.40;13.20;;;;;;;3.60;85.86;102055.94;4937725;29;20444;-47
2022/05/05 04:02:31;;;;;;;13.97;12.73;;;;;;;3.69;85.92;102052.56;4937552;29;20432;-46
2022/05/05 04:04:59;;;;;;;14.10;12.77;;;;;;;3.79;85.85;102056.16;4925996;28;20507;-44
2022/05/05 04:07:28;;;;;;;13.07;12.00;;;;;;;3.89;85.86;102051.84;4937370;29;20507;-46
2022/05/05 04:09:55;;;;;;;15.07;13.67;;;;;;;3.99;85.66;102054.59;4937712;29;20825;-45
2022/05/05 04:12:24;;;;;;;15.60;14.00;;;;;;;4.08;85.50;102058.28;4937415;29;20439;-45
2022/05/05 04:14:52;;;;;;;14.50;12.30;;;;;;;4.18;85.18;102053.97;4915220;28;20475;-49
2022/05/05 04:17:19;;;;;;;20.07;14.23;;;;;;;4.25;84.83;102065.69;4937476;29;20441;-45
2022/05/05 04:19:47;;;;;;;18.10;14.10;;;;;;;4.33;84.74;102058.00;4937051;29;20436;-45
2022/05/05 04:22:15;;;;;;;15.93;14.33;;;;;;;4.46;84.73;102059.50;4937300;29;20437;-46
2022/05/05 04:24:43;;;;;;;14.70;13.50;;;;;;;4.67;84.88;102058.72;4914715;28;20490;-45
2022/05/05 04:27:11;;;;;;;15.40;13.87;;;;;;;4.96;85.08;102065.91;4937231;29;20471;-51
2022/05/05 04:29:39;;;;;;;15.07;13.77;;;;;;;5.33;84.68;102065.44;4937559;29;20456;-46
2022/05/05 04:32:18;;;;;;;14.93;13.63;;;;;;;5.59;83.67;102067.53;4937858;29;20997;-46
2022/05/05 04:34:47;;;;;;;13.80;12.80;;;;;;;5.76;82.39;102073.19;4914361;28;20816;-46
2022/05/05 04:37:15;;;;;;;16.03;14.57;;;;;;;6.06;81.99;102070.56;4936187;29;20814;-46
2022/05/05 04:39:44;;;;;;;16.27;14.47;;;;;;;6.39;79.84;102082.63;4937007;29;20443;-46
2022/05/05 04:42:11;;;;;;;14.43;13.30;;;;;;;6.74;77.88;102077.63;4936777;29;20439;-49
2022/05/05 04:44:44;;;;;;;13.57;12.47;;;;;;;7.11;77.01;102075.06;4919868;28;20548;-46
2022/05/05 04:47:12;;;;;;;14.03;12.83;;;;;;;7.57;76.02;102075.13;4937723;29;20437;-47
2022/05/05 04:49:39;;;;;;;14.27;13.03;;;;;;;8.13;75.15;102076.84;4936789;29;20432;-48
2022/05/05 04:52:07;;;;;;;13.33;12.43;;;;;;;8.89;74.46;102072.84;4936536;29;20440;-47
2022/05/05 04:54:35;;;;;;;14.20;13.13;;;;;;;9.65;73.06;102084.53;4936209;29;20800;-46
2022/05/05 04:57:05;;;;;;;12.30;11.43;;;;;;;10.33;68.80;102080.03;4914761;28;20461;-49
2022/05/05 04:59:32;;;;;;;13.00;11.90;;;;;;;11.01;66.43;102069.13;4936628;29;20443;-49
2022/05/05 05:02:02;;;;;;;13.90;12.60;;;;;;;11.80;65.81;102076.38;4936690;29;20468;-47
2022/05/05 05:04:30;;;;;;;13.30;12.30;;;;;;;12.28;60.54;102075.28;4936334;29;21025;-46
2022/05/05 05:06:58;;;;;;;15.43;14.17;;;;;;;12.65;58.76;102078.94;4913892;28;21014;-48
2022/05/05 05:09:25;;;;;;;12.20;11.40;;;;;;;13.03;57.73;102077.13;4936527;29;20437;-49
2022/05/05 05:11:53;;;;;;;14.23;13.17;;;;;;;13.34;55.44;102079.75;4936108;29;20441;-49
2022/05/05 05:14:22;;;;;;;12.97;11.83;;;;;;;13.70;54.86;102086.06;4936563;29;20814;-46
2022/05/05 05:16:49;;;;;;;12.57;11.57;;;;;;;13.78;52.89;102091.34;4924648;28;20520;-46
2022/05/05 05:19:17;;;;;;;13.07;11.87;;;;;;;13.77;53.03;102084.28;4936840;29;20436;-48
2022/05/05 05:21:45;;;;;;;11.53;10.83;;;;;;;14.21;52.49;102091.50;4936602;29;20535;-47
2022/05/05 05:24:13;;;;;;;13.17;12.17;;;;;;;14.60;51.65;102086.63;4936335;29;20974;-47
2022/05/05 05:26:41;;;;;;;10.03;9.33;;;;;;;15.17;50.67;102091.09;4913723;28;20484;-48
2022/05/05 05:29:08;;;;;;;12.53;11.27;;;;;;;15.73;50.31;102092.78;4936360;29;20989;-48
2022/05/05 05:31:38;;;;;;;12.00;11.10;;;;;;;16.06;49.25;102087.56;4936321;29;20444;-48
2022/05/05 05:34:06;;;;;;;10.93;10.13;;;;;;;16.43;48.90;102094.31;4936377;29;20503;-47
2022/05/05 05:36:34;;;;;;;11.90;10.80;;;;;;;17.00;46.85;102096.53;4906778;28;20479;-48
2022/05/05 05:39:02;;;;;;;8.80;8.30;;;;;;;17.81;46.96;102092.59;4935219;29;20822;-48
2022/05/05 05:41:29;;;;;;;9.77;9.07;;;;;;;18.35;46.97;102096.75;4935642;29;20432;-49
2022/05/05 05:43:57;;;;;;;9.40;8.80;;;;;;;19.10;46.39;102096.72;4936021;29;20527;-47
2022/05/05 05:46:24;;;;;;;11.03;10.00;;;;;;;19.54;44.06;102100.31;4910546;28;20503;-47
2022/05/05 05:48:53;;;;;;;9.80;9.07;;;;;;;20.25;43.87;102095.19;4935423;29;20934;-47
2022/05/05 05:51:21;;;;;;;9.63;8.50;;;;;;;20.72;42.74;102093.53;4935647;29;20467;-47
2022/05/05 05:53:49;;;;;;;8.60;7.77;;;;;;;21.04;42.11;102103.03;4935736;29;20491;-50
2022/05/05 05:56:17;;;;;;;11.53;9.43;;;;;;;21.42;42.02;102105.34;4912979;28;20973;-48
2022/05/05 05:58:45;;;;;;;9.87;8.87;;;;;;;21.79;38.75;102105.94;4935693;29;20502;-51
2022/05/05 06:01:12;;;;;;;9.50;7.77;;;;;;;22.12;39.83;102111.59;4935370;29;20834;-49
2022/05/05 06:03:54;;;;;;;9.70;8.60;;;;;;;22.27;39.64;102109.19;4935334;29;20833;-49
2022/05/05 06:06:25;;;;;;;8.00;7.30;;;;;;;22.68;38.48;102107.25;4912836;28;20861;-50
2022/05/05 06:08:52;;;;;;;9.47;8.50;;;;;;;22.73;38.07;102108.19;4935482;29;20440;-50
2022/05/05 06:11:21;;;;;;;6.97;6.30;;;;;;;22.78;37.95;102113.72;4935326;29;20436;-50
2022/05/05 06:13:49;;;;;;;10.20;7.70;;;;;;;22.62;37.43;102114.47;4935269;29;20479;-49
2022/05/05 06:16:16;;;;;;;9.67;7.83;;;;;;;22.31;36.82;102113.03;4913001;28;20838;-48
2022/05/05 06:18:44;;;;;;;10.27;9.40;;;;;;;22.50;37.81;102110.97;4935016;29;20451;-48
2022/05/05 06:21:12;;;;;;;9.90;8.90;;;;;;;22.30;35.37;102113.31;4935261;29;20459;-47
2022/05/05 06:23:41;;;;;;;8.93;8.00;;;;;;;22.59;35.69;102112.25;4935226;29;20456;-47
2022/05/05 06:26:09;;;;;;;8.77;8.03;;;;;;;22.40;36.36;102113.50;4912496;28;20491;-49
2022/05/05 06:28:36;;;;;;;8.47;7.67;;;;;;;22.52;37.13;102117.00;4935173;29;20440;-48
2022/05/05 06:31:05;;;;;;;10.00;8.47;;;;;;;22.76;35.87;102115.06;4934670;29;20439;-46
2022/05/05 06:33:32;;;;;;;7.43;6.30;;;;;;;22.63;35.26;102118.84;4934826;29;20488;-48
2022/05/05 06:36:00;;;;;;;6.87;6.20;;;;;;;22.40;35.42;102113.50;4925514;28;20471;-52
2022/05/05 06:38:28;;;;;;;7.93;7.23;;;;;;;22.76;34.24;102120.50;4935142;29;20523;-50
2022/05/05 06:40:57;;;;;;;6.77;6.10;;;;;;;22.39;32.61;102118.13;4934692;29;20444;-48
2022/05/05 06:43:24;;;;;;;7.37;6.60;;;;;;;22.65;34.81;102113.19;4934828;29;20986;-46
2022/05/05 06:45:52;;;;;;;7.43;6.83;;;;;;;22.67;33.53;102117.31;4911595;28;20960;-47
2022/05/05 06:48:20;;;;;;;6.03;5.43;;;;;;;22.84;34.43;102122.81;4935092;29;20820;-46
2022/05/05 06:50:48;;;;;;;11.00;6.17;;;;;;;23.30;33.52;102121.69;4934595;29;20922;-48
2022/05/05 06:53:16;;;;;;;8.20;5.30;;;;;;;23.65;33.62;102120.34;4934716;29;20436;-48
2022/05/05 06:55:44;;;;;;;12.13;6.53;;;;;;;23.87;32.44;102114.94;4934838;29;20447;-47
2022/05/05 06:58:12;;;;;;;5.63;5.07;;;;;;;23.33;30.12;102116.56;4911981;28;20584;-50
2022/05/05 07:03:25;;;;;;;5.33;4.80;;;;;;;21.32;34.21;102127.66;4941058;29;20474;-46
2022/05/05 07:05:54;;;;;;;6.73;4.87;;;;;;;20.58;34.66;102130.81;4940971;29;20427;-47
2022/05/05 07:08:21;;;;;;;6.90;6.20;;;;;;;19.75;36.52;102140.50;4918503;28;20463;-48
2022/05/05 07:10:54;;;;;;;6.20;5.60;;;;;;;18.94;37.52;102140.50;4940797;29;20817;-49
2022/05/05 07:13:24;;;;;;;8.10;6.00;;;;;;;19.08;37.73;102133.16;4940955;29;20498;-50
2022/05/05 07:15:53;;;;;;;6.73;5.60;;;;;;;18.73;39.30;102135.44;4941259;29;20432;-47
2022/05/05 07:18:20;;;;;;;7.50;4.80;;;;;;;18.72;38.97;102142.75;4919497;28;20459;-51
2022/05/05 07:20:48;;;;;;;6.40;5.00;;;;;;;18.44;39.53;102144.91;4940567;29;20442;-50
2022/05/05 07:23:15;;;;;;;4.40;3.90;;;;;;;18.25;40.23;102151.22;4940673;29;20444;-50
2022/05/05 07:25:43;;;;;;;5.00;4.50;;;;;;;18.14;40.64;102144.59;4940797;29;20527;-49
2022/05/05 07:28:12;;;;;;;4.90;4.50;;;;;;;18.07;40.87;102145.69;4918273;28;20861;-46
2022/05/05 07:30:41;;;;;;;5.47;4.77;;;;;;;17.84;41.37;102156.94;4940503;29;20539;-45
2022/05/05 07:33:09;;;;;;;5.20;4.73;;;;;;;17.56;41.61;102159.84;4940771;29;20534;-47
2022/05/05 07:35:38;;;;;;;5.50;5.00;;;;;;;17.13;43.13;102154.00;4940654;29;20447;-47
2022/05/05 07:38:05;;;;;;;6.57;5.00;;;;;;;17.20;42.94;102148.63;4930752;28;20999;-49
2022/05/05 07:40:33;;;;;;;7.43;5.93;;;;;;;17.17;43.16;102154.44;4964079;28;20443;-46
2022/05/05 07:43:01;;;;;;;10.83;6.20;;;;;;;17.44;42.62;102148.00;4960118;28;20439;-46
2022/05/05 07:45:28;;;;;;;5.60;5.10;;;;;;;17.30;43.70;102148.19;4959892;28;20438;-46
2022/05/05 07:48:00;;;;;;;4.90;4.40;;;;;;;17.23;43.57;102158.16;4937729;28;20526;-48
2022/05/05 07:50:29;;;;;;;6.47;4.50;;;;;;;17.32;44.03;102156.94;4959910;28;20423;-45
2022/05/05 07:52:56;;;;;;;5.23;4.40;;;;;;;17.28;43.81;102163.75;4960026;28;20445;-48
2022/05/05 07:55:24;;;;;;;5.30;4.80;;;;;;;16.43;44.92;102161.63;4959823;28;20455;-48
2022/05/05 07:57:51;;;;;;;4.60;4.13;;;;;;;16.24;46.37;102170.47;4937601;28;20518;-47
2022/05/05 08:00:21;;;;;;;4.60;4.30;;;;;;;16.13;46.33;102173.72;4959581;28;20435;-47
2022/05/05 08:02:48;;;;;;;6.03;4.03;;;;;;;16.01;46.32;102160.81;4959557;28;20439;-46
2022/05/05 08:05:17;;;;;;;4.53;4.10;;;;;;;16.34;46.72;102163.66;4959543;28;20463;-48
2022/05/05 08:07:48;;;;;;;5.60;5.10;;;;;;;16.69;45.29;102166.34;4971318;23;20496;-46
2022/05/05 08:10:17;;;;;;;5.87;4.43;;;;;;;17.08;45.16;102164.56;4997477;28;20458;-51
2022/05/05 08:12:46;;;;;;;5.30;4.57;;;;;;;16.82;44.56;102167.19;4995429;28;20444;-52
2022/05/05 08:15:16;;;;;;;6.60;4.33;;;;;;;16.17;47.00;102174.97;4995014;28;20446;-48
2022/05/05 08:17:44;;;;;;;5.90;4.80;;;;;;;16.00;47.33;102177.16;4972719;28;20476;-52
2022/05/05 08:20:12;;;;;;;5.60;5.10;;;;;;;16.20;47.29;102170.03;4995030;28;20526;-49
2022/05/05 08:22:42;;;;;;;5.03;4.63;;;;;;;16.36;46.70;102177.78;4995261;28;20476;-50
2022/05/05 08:30:55;;;;;;;10.07;5.10;;;;;;;15.72;49.18;102187.91;4953558;29;20431;-53
2022/05/05 08:33:23;;;;;;;9.07;5.43;;;;;;;15.71;48.61;102199.69;4977073;28;20806;-46
2022/05/05 08:35:51;;;;;;;8.07;5.10;;;;;;;15.87;47.74;102202.09;4994829;28;20477;-50
2022/05/05 08:38:20;;;;;;;6.50;5.53;;;;;;;15.99;47.69;102195.16;4971643;28;20477;-50
2022/05/05 08:40:47;;;;;;;6.27;5.20;;;;;;;15.80;47.75;102205.78;4994558;28;20434;-45
2022/05/05 08:43:15;;;;;;;5.33;4.83;;;;;;;15.75;48.24;102200.13;4994460;28;20438;-46
2022/05/05 08:45:45;;;;;;;6.80;4.93;;;;;;;15.42;48.17;102205.22;4993342;28;20440;-53
2022/05/05 08:48:13;;;;;;;7.73;6.63;;;;;;;15.75;48.67;102210.91;4961909;28;20868;-51
2022/05/05 08:50:44;;;;;;;5.63;5.13;;;;;;;16.08;47.76;102216.53;4974690;28;20438;-49
2022/05/05 08:53:14;;;;;;;13.43;5.23;;;;;;;16.07;47.49;102212.19;4975160;28;20449;-50
2022/05/05 08:55:44;;;;;;;6.13;4.90;;;;;;;16.09;48.23;102205.56;4975131;28;20438;-51
2022/05/05 08:58:12;;;;;;;7.17;5.30;;;;;;;15.71;48.39;102218.53;4952286;28;20472;-50
2022/05/05 09:00:41;;;;;;;7.80;5.90;;;;;;;16.11;48.85;102208.06;4994041;28;20444;-51
2022/05/05 09:03:10;;;;;;;5.87;5.33;;;;;;;16.45;48.63;102210.75;4994123;28;20469;-51
2022/05/05 09:05:51;;;;;;;7.77;6.13;;;;;;;16.91;47.12;102203.69;4994479;28;20440;-51
2022/05/05 09:08:30;;;;;;;6.43;5.40;;;;;;;17.08;45.83;102204.97;4978474;28;20497;-48
2022/05/05 09:11:01;;;;;;;8.00;5.47;;;;;;;17.09;46.61;102203.13;5012344;28;20438;-51
2022/05/05 09:13:31;;;;;;;5.40;4.80;;;;;;;16.31;47.40;102209.00;4993950;28;20434;-49
2022/05/05 09:15:58;;;;;;;5.03;4.63;;;;;;;17.12;46.62;102208.09;4994490;28;20814;-49
2022/05/05 09:18:28;;;;;;;10.50;5.47;;;;;;;17.46;44.96;102204.44;4973234;28;20475;-51
2022/05/05 09:20:58;;;;;;;14.10;6.03;;;;;;;17.15;45.64;102199.63;4993841;28;20429;-52
2022/05/05 09:23:31;;;;;;;15.77;9.53;;;;;;;17.59;45.44;102208.00;4993340;28;20448;-52
2022/05/05 09:26:02;;;;;;;10.50;6.37;;;;;;;18.07;44.82;102211.28;4993702;28;20815;-46
2022/05/05 09:28:31;;;;;;;5.93;5.43;;;;;;;18.17;44.30;102208.97;4972780;28;21016;-51
2022/05/05 09:31:05;;;;;;;6.27;5.10;;;;;;;18.45;41.84;102207.88;4993484;28;20445;-51
2022/05/05 09:33:38;;;;;;;4.80;4.50;;;;;;;17.80;43.42;102214.25;4993621;28;20977;-48
2022/05/05 09:36:08;;;;;;;5.43;4.90;;;;;;;17.91;44.59;102214.44;4993631;28;20440;-53
2022/05/05 09:38:52;;;;;;;8.43;5.17;;;;;;;18.24;43.63;102217.06;4965320;28;20467;-48
2022/05/05 09:41:22;;;;;;;5.30;4.90;;;;;;;18.35;43.71;102215.59;5016868;28;20521;-51
2022/05/05 09:43:51;;;;;;;6.43;5.20;;;;;;;18.34;42.99;102214.75;4993592;28;20449;-50
2022/05/05 09:46:31;;;;;;;4.90;4.50;;;;;;;18.23;43.28;102218.94;4993256;28;20993;-51
2022/05/05 09:49:09;;;;;;;6.07;5.57;;;;;;;18.15;43.76;102218.34;4972425;28;20487;-48
2022/05/05 09:51:40;;;;;;;6.27;5.67;;;;;;;18.81;42.90;102215.44;4993208;28;20437;-50
2022/05/05 10:00:09;;;;;;;8.53;6.40;;;;;;;19.02;42.40;102213.28;4928009;28;20463;-49
2022/05/05 10:05:23;;;;;;;6.70;5.60;;;;;;;19.76;41.45;102213.38;4993144;28;20437;-48
2022/05/05 10:07:53;;;;;;;5.80;5.40;;;;;;;19.80;39.56;102219.19;4992794;28;20492;-53
2022/05/05 10:10:21;;;;;;;6.67;5.27;;;;;;;18.78;41.43;102206.75;4973073;28;20469;-51
2022/05/05 10:12:52;;;;;;;9.47;5.70;;;;;;;19.10;43.31;102209.47;4993178;28;20430;-51
2022/05/05 10:15:20;;;;;;;6.00;5.57;;;;;;;19.66;42.56;102204.09;4993078;28;20437;-48
2022/05/05 10:17:48;;;;;;;7.83;6.30;;;;;;;19.94;41.24;102215.31;4992813;28;20456;-48
2022/05/05 10:20:18;;;;;;;6.53;5.60;;;;;;;19.53;41.31;102206.91;4972516;28;20548;-49
2022/05/05 10:22:51;;;;;;;9.13;6.17;;;;;;;18.75;43.86;102200.94;4992792;28;20780;-47
2022/05/05 10:25:25;;;;;;;6.27;5.77;;;;;;;18.98;43.65;102205.78;4993022;28;20446;-53
2022/05/05 10:27:55;;;;;;;6.17;5.60;;;;;;;19.19;43.29;102206.28;4992521;28;20483;-49
2022/05/05 10:30:34;;;;;;;6.60;5.90;;;;;;;19.05;43.53;102203.88;4979339;28;20561;-52
2022/05/05 10:33:01;;;;;;;6.60;5.97;;;;;;;19.09;42.99;102200.53;4993007;28;20800;-49
2022/05/05 10:35:38;;;;;;;9.50;5.10;;;;;;;19.29;42.31;102195.00;4992029;28;20433;-51
2022/05/05 10:38:40;;;;;;;7.33;6.20;;;;;;;19.41;42.52;102200.56;4992632;28;20456;-52
2022/05/05 10:41:35;;;;;;;6.33;5.73;;;;;;;19.22;43.54;102203.16;4971553;28;20567;-49
2022/05/05 10:44:26;;;;;;;8.67;6.17;;;;;;;19.40;42.72;102209.72;4992770;28;20476;-44
2022/05/05 10:47:04;;;;;;;8.13;5.97;;;;;;;18.69;44.15;102209.91;4992294;28;20450;-50
2022/05/05 10:49:50;;;;;;;6.23;5.83;;;;;;;19.11;44.90;102211.13;4968681;28;20986;-48
2022/05/05 10:52:31;;;;;;;7.00;6.40;;;;;;;19.01;43.07;102222.41;4992125;28;20441;-48
2022/05/05 10:55:25;;;;;;;7.10;6.40;;;;;;;19.28;42.51;102210.41;4992524;28;20433;-48
2022/05/05 10:58:13;;;;;;;6.43;5.60;;;;;;;19.28;42.35;102213.09;4992582;28;20966;-49
2022/05/05 11:00:44;;;;;;;5.73;5.20;;;;;;;18.77;43.76;102217.75;4969655;28;20465;-48
2022/05/05 11:03:18;;;;;;;6.07;5.47;;;;;;;19.04;42.80;102218.44;4992417;28;20426;-53
2022/05/05 11:05:45;;;;;;;6.23;5.60;;;;;;;18.93;43.42;102211.88;4992341;28;20441;-49
2022/05/05 11:08:32;;;;;;;5.80;5.23;;;;;;;18.80;44.42;102217.31;4991945;28;20461;-53
2022/05/05 11:13:45;;;;;;;5.30;5.00;;;;;;;18.63;43.45;102226.97;4992085;28;20441;-52
2022/05/05 11:22:15;;;;;;;5.60;5.00;;;;;;;18.65;43.91;102227.56;4969388;28;20464;-50
2022/05/05 11:24:46;;;;;;;5.87;5.20;;;;;;;18.82;43.44;102230.63;4992058;28;20434;-51
2022/05/05 11:27:15;;;;;;;11.23;6.50;;;;;;;19.02;43.28;102234.91;4992223;28;20461;-49
2022/05/05 11:29:48;;;;;;;8.30;6.20;;;;;;;19.25;43.76;102228.94;4992059;28;20481;-45
2022/05/05 11:32:17;;;;;;;6.87;6.17;;;;;;;19.60;42.50;102229.31;4967894;28;20462;-51
2022/05/05 11:34:46;;;;;;;6.17;5.67;;;;;;;19.84;40.84;102231.22;4992097;28;20433;-49
2022/05/05 11:37:14;;;;;;;7.47;6.77;;;;;;;19.85;41.57;102233.72;4991859;28;20535;-52
2022/05/05 11:39:42;;;;;;;8.07;6.20;;;;;;;19.72;41.48;102238.38;4992181;28;20575;-53
2022/05/05 11:42:11;;;;;;;7.70;7.03;;;;;;;19.12;43.37;102239.81;4979481;28;20473;-51
2022/05/05 11:44:40;;;;;;;8.60;6.87;;;;;;;18.98;44.33;102249.03;4973367;28;20430;-50
2022/05/05 11:47:13;;;;;;;8.93;6.90;;;;;;;18.29;43.75;102238.03;4974807;28;20495;-50
2022/05/05 11:49:46;;;;;;;7.23;6.63;;;;;;;18.11;45.42;102239.53;4975903;28;21006;-47
2022/05/05 11:52:16;;;;;;;10.80;7.00;;;;;;;17.62;47.15;102245.34;4953717;28;20458;-49
2022/05/05 11:54:47;;;;;;;8.20;7.00;;;;;;;17.12;48.60;102249.38;4976206;28;20822;-51
2022/05/05 11:57:31;;;;;;;9.00;8.10;;;;;;;17.06;48.21;102255.59;4976129;28;20469;-48
2022/05/05 12:02:43;;;;;;;7.37;6.67;;;;;;;17.50;47.16;102246.16;4953463;28;20462;-46
2022/05/05 12:05:18;;;;;;;9.37;8.17;;;;;;;17.27;48.08;102242.97;4975946;28;20462;-47
2022/05/05 12:07:46;;;;;;;10.67;7.47;;;;;;;16.88;49.94;102244.53;4975729;28;20466;-49
2022/05/05 12:10:16;;;;;;;8.40;7.60;;;;;;;16.99;49.70;102243.94;4975487;28;20536;-46
2022/05/05 12:12:44;;;;;;;9.20;7.70;;;;;;;16.62;49.93;102244.41;4952399;28;20492;-46
2022/05/05 12:15:16;;;;;;;9.80;8.53;;;;;;;16.51;51.64;102243.09;4975935;28;20434;-48